Time;durP1;ratioP1;P1;durP2;ratioP2;P2;SDS_P1;SDS_P2;PMS_P1;PMS_P2;Temp;Humidity;BMP_temperature;BMP_pressure;BME280_temperature;BME280_humidity;BME280_pressure;Samples;Min_cycle;Max_cycle;Signal;HPM_P1;HPM_P2
2023/03/30 00:01:43;;;;;;;13.70;2.23;;;;;;;11.37;100.00;95935.78;6180965;23;20021;-85
2023/03/30 00:04:11;;;;;;;9.70;2.03;;;;;;;11.41;100.00;95922.13;6185325;23;20013;-86
2023/03/30 00:06:38;;;;;;;9.07;2.20;;;;;;;11.42;100.00;95915.84;6168289;23;20028;-86
2023/03/30 00:09:06;;;;;;;9.17;2.33;;;;;;;11.37;100.00;95927.88;6156387;23;20393;-85
2023/03/30 00:11:33;;;;;;;10.03;2.77;;;;;;;11.46;100.00;95925.03;6181358;23;20025;-85
2023/03/30 00:14:16;;;;;;;8.00;2.17;;;;;;;11.49;100.00;95923.88;6181573;23;20009;-85
2023/03/30 00:16:46;;;;;;;9.33;2.37;;;;;;;11.59;100.00;95916.59;6180643;23;20016;-85
2023/03/30 00:19:12;;;;;;;12.03;2.57;;;;;;;11.60;100.00;95923.47;6181048;23;20063;-85
2023/03/30 00:21:41;;;;;;;9.03;2.30;;;;;;;11.61;100.00;95916.44;6180623;23;20020;-85
2023/03/30 00:24:07;;;;;;;9.90;2.57;;;;;;;11.68;100.00;95917.38;6180893;23;20596;-85
2023/03/30 00:26:32;;;;;;;10.67;2.20;;;;;;;11.66;100.00;95924.59;6181591;23;20044;-85
2023/03/30 00:28:58;;;;;;;12.57;2.13;;;;;;;11.57;100.00;95924.66;6182866;23;20433;-85
2023/03/30 00:31:24;;;;;;;10.47;2.57;;;;;;;11.56;100.00;95944.06;6156313;23;20059;-84
2023/03/30 00:33:51;;;;;;;12.47;2.57;;;;;;;11.48;100.00;95954.66;6180756;23;20001;-86
2023/03/30 00:36:21;;;;;;;16.33;2.77;;;;;;;11.49;100.00;95961.56;6181113;23;20024;-85
2023/03/30 00:38:47;;;;;;;9.30;1.90;;;;;;;11.62;100.00;95965.47;6206844;23;20008;-85
2023/03/30 00:41:15;;;;;;;8.73;2.57;;;;;;;11.96;100.00;95975.69;6181260;23;20017;-85
2023/03/30 00:44:01;;;;;;;13.03;2.70;;;;;;;11.99;100.00;95981.41;6176643;23;20016;-85
2023/03/30 00:46:29;;;;;;;12.27;3.03;;;;;;;11.97;100.00;95980.78;6183211;23;20013;-85
2023/03/30 00:49:00;;;;;;;7.40;2.20;;;;;;;11.93;100.00;95981.28;6188471;23;20028;-84
2023/03/30 00:51:27;;;;;;;11.07;2.47;;;;;;;11.60;100.00;95989.31;6191480;23;20140;-84
2023/03/30 00:54:03;;;;;;;12.53;2.70;;;;;;;11.49;100.00;96001.06;6180624;23;20024;-85
2023/03/30 00:56:30;;;;;;;14.30;2.87;;;;;;;11.22;100.00;95996.22;6182675;23;20019;-84
2023/03/30 00:58:56;;;;;;;9.73;2.97;;;;;;;11.26;100.00;96003.59;6178846;23;20028;-84
2023/03/30 01:01:27;;;;;;;11.20;3.57;;;;;;;11.23;100.00;96011.88;6204236;23;20016;-84
2023/03/30 01:04:02;;;;;;;10.47;2.70;;;;;;;11.05;100.00;96005.97;6179924;23;20025;-84
2023/03/30 01:06:34;;;;;;;10.77;3.43;;;;;;;10.90;100.00;96000.56;6180344;23;20017;-83
2023/03/30 01:09:01;;;;;;;9.30;2.70;;;;;;;10.83;100.00;96005.69;6179973;23;20009;-85
2023/03/30 01:11:27;;;;;;;9.07;2.63;;;;;;;10.87;100.00;96006.16;6155464;23;20044;-85
2023/03/30 01:14:00;;;;;;;11.80;3.67;;;;;;;10.92;100.00;96003.84;6155603;23;20009;-83
2023/03/30 01:16:37;;;;;;;16.02;3.55;;;;;;;10.96;100.00;95992.00;6180539;23;20016;-84
2023/03/30 01:19:10;;;;;;;10.83;3.67;;;;;;;10.99;100.00;95975.88;6156442;23;20016;-85
2023/03/30 01:21:36;;;;;;;13.93;3.00;;;;;;;10.98;100.00;95971.59;6155136;23;20017;-85
2023/03/30 01:24:33;;;;;;;14.23;3.20;;;;;;;10.98;100.00;95947.94;6155771;23;20087;-84
2023/03/30 01:30:14;;;;;;;14.37;2.93;;;;;;;10.98;100.00;95923.44;6180189;23;20437;-85
2023/03/30 01:33:12;;;;;;;13.30;2.30;;;;;;;10.97;100.00;95924.44;6155608;23;20104;-84
2023/03/30 01:35:57;;;;;;;8.13;2.70;;;;;;;10.95;100.00;95921.94;6154692;23;20155;-84
2023/03/30 01:38:59;;;;;;;21.80;3.83;;;;;;;10.90;100.00;95919.03;6155578;23;20017;-84
2023/03/30 01:41:50;;;;;;;14.70;2.85;;;;;;;10.91;100.00;95910.13;6179222;23;20032;-85
2023/03/30 01:44:25;;;;;;;13.83;3.10;;;;;;;10.74;100.00;95914.63;6179098;23;20037;-84
2023/03/30 01:47:21;;;;;;;8.87;2.70;;;;;;;10.78;100.00;95907.22;6152212;23;20170;-85
2023/03/30 01:49:54;;;;;;;17.17;2.77;;;;;;;10.83;100.00;95894.34;6149091;23;20417;-86
2023/03/30 01:52:23;;;;;;;10.95;2.95;;;;;;;10.80;100.00;95897.34;6179902;23;20012;-85
2023/03/30 01:54:59;;;;;;;12.50;2.70;;;;;;;10.84;100.00;95885.50;6179629;23;20009;-84
2023/03/30 01:57:58;;;;;;;13.20;2.80;;;;;;;10.83;100.00;95870.69;6205544;23;20020;-85
2023/03/30 02:00:29;;;;;;;14.53;3.33;;;;;;;10.83;100.00;95866.28;6180174;23;20108;-85
2023/03/30 02:03:21;;;;;;;7.10;2.07;;;;;;;10.72;100.00;95871.88;6183220;23;20021;-85
2023/03/30 02:05:51;;;;;;;12.33;3.27;;;;;;;10.77;100.00;95887.16;6183465;23;20017;-85
2023/03/30 02:08:21;;;;;;;11.23;3.70;;;;;;;10.98;100.00;95887.41;6183855;23;20020;-84
2023/03/30 02:10:49;;;;;;;12.70;2.70;;;;;;;11.10;100.00;95882.63;6182946;23;20013;-85
2023/03/30 02:13:19;;;;;;;16.00;4.27;;;;;;;11.18;100.00;95882.56;6182028;23;20332;-85
2023/03/30 02:15:57;;;;;;;11.93;3.30;;;;;;;11.24;100.00;95870.53;6182458;23;20298;-85
2023/03/30 02:18:23;;;;;;;13.07;2.97;;;;;;;11.29;100.00;95876.09;6181396;23;20024;-85
2023/03/30 02:20:49;;;;;;;10.63;2.50;;;;;;;11.38;100.00;95879.50;6206706;23;20016;-84
2023/03/30 02:23:56;;;;;;;14.27;2.60;;;;;;;11.43;100.00;95888.50;6156456;23;20059;-85
2023/03/30 02:26:26;;;;;;;9.90;2.57;;;;;;;11.55;100.00;95897.69;6181342;23;20048;-85
2023/03/30 02:28:53;;;;;;;11.50;3.17;;;;;;;11.61;100.00;95892.72;6157976;23;20021;-86
2023/03/30 02:31:31;;;;;;;11.20;2.20;;;;;;;11.65;100.00;95888.75;6160796;23;20071;-85
2023/03/30 02:34:12;;;;;;;12.27;3.13;;;;;;;11.70;100.00;95881.13;6159195;23;20012;-85
2023/03/30 02:36:59;;;;;;;19.57;3.93;;;;;;;11.68;100.00;95885.75;6202298;23;20040;-85
2023/03/30 02:40:11;;;;;;;16.80;2.90;;;;;;;11.63;100.00;95896.81;6160447;23;20384;-85
2023/03/30 02:42:58;;;;;;;9.73;2.83;;;;;;;11.55;100.00;95888.97;6158885;23;20009;-85
2023/03/30 02:45:44;;;;;;;14.43;2.77;;;;;;;11.56;100.00;95899.31;6172057;23;20017;-85
2023/03/30 02:48:22;;;;;;;13.50;3.27;;;;;;;11.55;100.00;95904.75;6166688;23;20337;-85
2023/03/30 02:51:32;;;;;;;12.00;2.90;;;;;;;11.60;100.00;95907.69;6181143;23;20005;-86
2023/03/30 02:54:30;;;;;;;20.17;3.67;;;;;;;11.66;100.00;95903.53;6222903;23;20013;-85
2023/03/30 02:57:34;;;;;;;15.87;3.90;;;;;;;11.64;100.00;95905.53;6229675;23;20032;-86
2023/03/30 03:04:27;;;;;;;11.30;2.50;;;;;;;11.65;100.00;95899.28;6124986;23;20053;-85
2023/03/30 03:07:18;;;;;;;12.97;2.77;;;;;;;11.85;100.00;95889.94;6141684;23;20017;-85
2023/03/30 03:09:46;;;;;;;17.33;2.87;;;;;;;11.94;100.00;95902.09;6155891;23;20017;-85
2023/03/30 03:12:13;;;;;;;10.43;3.40;;;;;;;12.03;100.00;95902.81;6180895;23;20088;-85
2023/03/30 03:14:42;;;;;;;12.23;3.10;;;;;;;12.01;100.00;95905.66;6182315;23;20445;-85
2023/03/30 03:17:33;;;;;;;17.90;4.03;;;;;;;11.97;100.00;95909.63;6182815;23;20059;-85
2023/03/30 03:20:02;;;;;;;11.97;3.13;;;;;;;11.82;100.00;95921.06;6157645;23;20017;-85
2023/03/30 03:22:47;;;;;;;11.53;3.17;;;;;;;11.67;100.00;95919.19;6181575;23;20040;-85
2023/03/30 03:25:14;;;;;;;14.07;4.07;;;;;;;11.58;100.00;95917.59;6182510;23;20453;-85
2023/03/30 03:28:07;;;;;;;17.13;3.20;;;;;;;11.56;100.00;95932.72;6178166;23;20005;-85
2023/03/30 03:30:45;;;;;;;15.97;4.00;;;;;;;11.54;100.00;95930.28;6204280;23;20009;-85
2023/03/30 03:33:21;;;;;;;13.33;3.43;;;;;;;11.61;100.00;95924.31;6182911;23;20005;-85
2023/03/30 03:35:58;;;;;;;15.10;3.90;;;;;;;11.60;100.00;95922.66;6207153;23;20066;-85
2023/03/30 03:38:26;;;;;;;14.17;3.50;;;;;;;11.70;100.00;95932.00;6182094;23;20020;-85
2023/03/30 03:40:58;;;;;;;16.03;4.03;;;;;;;11.71;100.00;95922.28;6156650;23;20032;-84
2023/03/30 03:43:25;;;;;;;19.53;3.43;;;;;;;11.76;100.00;95917.31;6182267;23;20183;-85
2023/03/30 03:45:51;;;;;;;14.90;4.20;;;;;;;11.72;100.00;95916.03;6206398;23;20120;-85
2023/03/30 03:48:23;;;;;;;17.70;4.17;;;;;;;11.67;100.00;95913.91;6206950;23;20028;-84
2023/03/30 03:50:51;;;;;;;13.70;4.40;;;;;;;11.64;100.00;95914.25;6156061;23;20031;-84
2023/03/30 03:53:18;;;;;;;12.60;2.97;;;;;;;11.64;100.00;95913.44;6181023;23;20005;-83
2023/03/30 03:55:45;;;;;;;15.63;3.00;;;;;;;11.52;100.00;95913.81;6181277;23;20017;-84
2023/03/30 03:58:13;;;;;;;10.57;3.17;;;;;;;11.44;100.00;95903.34;6156526;23;20445;-84
2023/03/30 04:00:42;;;;;;;15.17;4.33;;;;;;;11.39;100.00;95895.13;6181397;23;20048;-84
2023/03/30 04:03:11;;;;;;;17.13;3.80;;;;;;;11.31;100.00;95897.81;6180741;23;20024;-84
2023/03/30 04:05:37;;;;;;;12.10;3.10;;;;;;;11.32;100.00;95895.00;6180401;23;20067;-84
2023/03/30 04:08:04;;;;;;;17.90;3.70;;;;;;;11.26;100.00;95885.16;6180769;23;20092;-84
2023/03/30 04:10:30;;;;;;;16.47;4.13;;;;;;;11.30;100.00;95883.84;6203262;23;20032;-84
2023/03/30 04:13:29;;;;;;;15.70;3.97;;;;;;;11.34;100.00;95876.41;6145419;23;20508;-84
2023/03/30 04:16:10;;;;;;;19.70;4.60;;;;;;;11.35;100.00;95883.31;6157322;23;20021;-84
2023/03/30 04:18:56;;;;;;;15.38;5.15;;;;;;;11.35;100.00;95880.66;6157854;23;20091;-83
2023/03/30 04:21:28;;;;;;;16.97;3.60;;;;;;;11.31;100.00;95867.03;6206663;23;20017;-84
2023/03/30 04:24:16;;;;;;;15.20;4.43;;;;;;;11.24;100.00;95850.28;6186306;23;20129;-84
2023/03/30 04:27:03;;;;;;;16.60;5.67;;;;;;;11.18;100.00;95826.47;6191715;23;20017;-84
2023/03/30 04:29:29;;;;;;;13.90;4.47;;;;;;;11.19;100.00;95849.16;6180978;23;20031;-83
2023/03/30 04:32:01;;;;;;;16.10;4.97;;;;;;;11.17;100.00;95848.53;6204989;23;20011;-84
2023/03/30 04:34:47;;;;;;;18.73;4.83;;;;;;;11.17;100.00;95856.44;6160142;23;20005;-84
2023/03/30 04:37:37;;;;;;;17.60;4.97;;;;;;;11.13;100.00;95857.75;6196452;23;20021;-84
2023/03/30 04:40:21;;;;;;;16.33;4.83;;;;;;;11.18;100.00;95842.28;6203029;23;20024;-83
2023/03/30 04:43:08;;;;;;;13.57;4.67;;;;;;;11.24;100.00;95831.88;6202499;23;20035;-84
2023/03/30 04:46:12;;;;;;;15.93;4.33;;;;;;;11.25;100.00;95830.06;6167476;23;20470;-84
2023/03/30 04:49:10;;;;;;;16.83;4.50;;;;;;;11.28;100.00;95837.59;6130424;23;20035;-84
2023/03/30 04:52:05;;;;;;;17.27;4.67;;;;;;;11.17;100.00;95833.56;6100997;23;20022;-84
2023/03/30 04:55:00;;;;;;;19.03;3.87;;;;;;;11.22;100.00;95833.84;6186109;23;20013;-84
2023/03/30 04:58:00;;;;;;;21.93;5.90;;;;;;;11.14;100.00;95827.81;6178393;23;20013;-84
2023/03/30 05:00:46;;;;;;;19.73;5.40;;;;;;;11.08;100.00;95816.97;6181619;23;20075;-83
2023/03/30 05:03:20;;;;;;;14.63;4.93;;;;;;;11.05;100.00;95817.31;6180387;23;20017;-84
2023/03/30 05:05:56;;;;;;;21.67;4.60;;;;;;;11.02;100.00;95817.66;6180049;23;20012;-85
2023/03/30 05:08:42;;;;;;;12.50;4.20;;;;;;;11.01;100.00;95825.75;6181229;23;20023;-84
2023/03/30 05:11:34;;;;;;;21.10;6.43;;;;;;;10.99;100.00;95804.84;6170302;23;20020;-84
2023/03/30 05:14:17;;;;;;;16.87;5.13;;;;;;;10.95;100.00;95793.03;6185695;23;20020;-84
2023/03/30 05:17:18;;;;;;;18.33;5.13;;;;;;;10.97;100.00;95792.88;6169790;23;20027;-84
2023/03/30 05:19:59;;;;;;;14.90;4.83;;;;;;;10.91;100.00;95783.84;6164679;23;20009;-84
2023/03/30 05:22:45;;;;;;;15.93;5.27;;;;;;;10.93;100.00;95794.19;6186427;23;20009;-84
2023/03/30 05:25:31;;;;;;;20.43;5.60;;;;;;;10.84;100.00;95781.09;6187803;23;20068;-84
2023/03/30 05:28:33;;;;;;;13.93;4.33;;;;;;;10.87;100.00;95769.41;6180853;23;20092;-84
2023/03/30 05:31:26;;;;;;;19.17;4.90;;;;;;;10.88;100.00;95771.03;6178606;23;20089;-84
2023/03/30 05:34:13;;;;;;;15.30;4.53;;;;;;;10.83;100.00;95761.06;6202989;23;20056;-84
2023/03/30 05:36:50;;;;;;;14.50;4.30;;;;;;;10.87;100.00;95758.06;6181088;23;20017;-84
2023/03/30 05:39:47;;;;;;;17.20;4.77;;;;;;;10.83;100.00;95747.91;6167953;23;20105;-85
2023/03/30 05:42:33;;;;;;;18.93;4.40;;;;;;;10.82;100.00;95748.06;6180473;23;20527;-84
2023/03/30 05:45:17;;;;;;;17.27;3.90;;;;;;;10.88;100.00;95754.44;6182255;23;20028;-84
2023/03/30 05:48:18;;;;;;;15.63;3.67;;;;;;;10.91;100.00;95762.81;6107841;23;20772;-84
2023/03/30 05:51:00;;;;;;;17.00;4.07;;;;;;;10.98;100.00;95765.56;6174008;23;20035;-85
2023/03/30 05:53:39;;;;;;;19.90;4.60;;;;;;;11.02;100.00;95765.03;6157085;23;20357;-84
2023/03/30 05:56:34;;;;;;;17.53;4.20;;;;;;;11.14;100.00;95760.22;6180802;23;20033;-84
2023/03/30 05:59:36;;;;;;;18.93;4.27;;;;;;;11.26;100.00;95757.97;6108163;23;20015;-85
2023/03/30 06:02:01;;;;;;;19.77;5.33;;;;;;;11.39;100.00;95773.19;6186888;23;20024;-84
2023/03/30 06:04:34;;;;;;;11.03;3.63;;;;;;;11.45;100.00;95768.06;6181870;23;20013;-84
2023/03/30 06:07:02;;;;;;;19.20;4.03;;;;;;;11.50;100.00;95767.50;6183248;23;20013;-85
2023/03/30 06:09:28;;;;;;;13.40;3.67;;;;;;;11.53;100.00;95751.38;6158298;23;20028;-85
2023/03/30 06:11:57;;;;;;;13.13;3.20;;;;;;;11.54;100.00;95748.56;6196130;23;20012;-90
2023/03/30 06:14:24;;;;;;;20.57;3.23;;;;;;;11.59;100.00;95753.28;6167296;23;20016;-90
2023/03/30 06:17:19;;;;;;;14.20;3.50;;;;;;;11.55;100.00;95738.84;6170801;23;20077;-89
2023/03/30 06:19:46;;;;;;;19.50;7.40;;;;;;;11.52;100.00;95733.94;6182055;23;20013;-90
2023/03/30 06:22:12;;;;;;;12.90;4.33;;;;;;;11.50;100.00;95747.28;6157487;23;20016;-90
2023/03/30 06:24:59;;;;;;;17.00;4.57;;;;;;;11.47;100.00;95768.72;6185564;23;20032;-89
2023/03/30 06:27:25;;;;;;;20.27;5.23;;;;;;;11.49;100.00;95764.06;6183039;23;20020;-89
2023/03/30 06:29:52;;;;;;;10.63;3.40;;;;;;;11.48;100.00;95756.34;6158245;23;20069;-90
2023/03/30 06:32:17;;;;;;;14.37;3.87;;;;;;;11.54;100.00;95753.84;6185014;23;20048;-90
2023/03/30 06:35:16;;;;;;;15.57;3.00;;;;;;;11.48;100.00;95759.81;6184271;23;20039;-90
2023/03/30 06:37:43;;;;;;;17.87;3.93;;;;;;;11.48;100.00;95757.19;6180948;23;20048;-84
2023/03/30 06:40:12;;;;;;;20.20;4.33;;;;;;;11.48;100.00;95754.53;6179591;23;20088;-84
2023/03/30 06:42:40;;;;;;;16.30;3.97;;;;;;;11.50;100.00;95735.91;6178986;23;20107;-84
2023/03/30 06:45:19;;;;;;;12.13;3.43;;;;;;;11.51;100.00;95756.81;6179837;23;20024;-84
2023/03/30 06:47:46;;;;;;;14.87;4.33;;;;;;;11.40;100.00;95774.84;6180329;23;20575;-85
2023/03/30 06:50:13;;;;;;;18.53;4.23;;;;;;;11.45;100.00;95786.47;6154326;23;20119;-84
2023/03/30 06:52:58;;;;;;;13.03;4.00;;;;;;;11.55;100.00;95789.69;6180053;23;20075;-84
2023/03/30 06:55:35;;;;;;;21.00;3.57;;;;;;;11.73;100.00;95775.41;6179990;23;20009;-84
2023/03/30 06:58:01;;;;;;;15.97;3.53;;;;;;;11.76;100.00;95789.03;6184857;23;20017;-84
2023/03/30 07:00:28;;;;;;;14.23;3.60;;;;;;;11.76;100.00;95781.13;6171342;23;20027;-84
2023/03/30 07:03:15;;;;;;;16.43;4.53;;;;;;;11.87;100.00;95776.47;6197730;23;20052;-85
2023/03/30 07:06:01;;;;;;;18.57;5.17;;;;;;;11.93;100.00;95781.84;6192720;23;20072;-84
2023/03/30 07:08:34;;;;;;;13.93;4.17;;;;;;;12.01;100.00;95783.59;6182029;23;20048;-84
2023/03/30 07:11:01;;;;;;;13.77;4.20;;;;;;;12.05;100.00;95779.59;6180062;23;20615;-84
2023/03/30 07:13:33;;;;;;;14.10;3.57;;;;;;;12.10;100.00;95779.06;6180056;23;20016;-85
2023/03/30 07:15:59;;;;;;;12.77;3.13;;;;;;;12.11;100.00;95778.09;6180620;23;20057;-84
2023/03/30 07:18:26;;;;;;;19.50;4.43;;;;;;;12.17;100.00;95794.00;6180104;23;20017;-84
2023/03/30 07:20:52;;;;;;;15.23;4.23;;;;;;;12.14;100.00;95788.22;6179893;23;20095;-84
2023/03/30 07:23:20;;;;;;;16.27;4.13;;;;;;;12.12;100.00;95779.72;6204875;23;20492;-84
2023/03/30 07:25:48;;;;;;;14.07;4.00;;;;;;;12.22;100.00;95788.19;6155418;23;20009;-85
2023/03/30 07:28:18;;;;;;;15.43;3.97;;;;;;;12.21;100.00;95787.34;6156388;23;20013;-85
2023/03/30 07:30:45;;;;;;;19.10;5.50;;;;;;;12.27;100.00;95783.16;6154839;23;20472;-85
2023/03/30 07:33:13;;;;;;;16.93;5.87;;;;;;;12.33;100.00;95782.44;6180151;23;20005;-84
2023/03/30 07:35:48;;;;;;;18.53;5.37;;;;;;;12.42;100.00;95788.47;6131878;23;20013;-85
2023/03/30 07:38:24;;;;;;;23.27;8.70;;;;;;;12.50;100.00;95797.09;6204574;23;20013;-86
2023/03/30 07:40:53;;;;;;;30.15;12.85;;;;;;;12.66;100.00;95811.09;6179688;23;20013;-85
2023/03/30 07:43:20;;;;;;;23.03;8.47;;;;;;;12.75;100.00;95828.50;6180387;23;20326;-85
2023/03/30 07:45:55;;;;;;;14.70;4.70;;;;;;;12.77;100.00;95837.03;6180530;23;20017;-84
2023/03/30 07:48:41;;;;;;;13.77;3.50;;;;;;;12.77;100.00;95847.56;6158523;23;20029;-85
2023/03/30 07:51:11;;;;;;;15.00;3.57;;;;;;;12.85;100.00;95859.88;6156970;23;20045;-85
2023/03/30 07:53:47;;;;;;;12.60;3.53;;;;;;;12.64;100.00;95869.34;6183059;23;20370;-90
2023/03/30 07:56:21;;;;;;;18.37;5.90;;;;;;;12.52;100.00;95869.97;6200296;23;20025;-90
2023/03/30 07:58:49;;;;;;;16.80;4.00;;;;;;;12.50;100.00;95872.75;6182367;23;20332;-90
2023/03/30 08:01:20;;;;;;;10.30;2.90;;;;;;;12.39;100.00;95879.28;6159030;23;20516;-90
2023/03/30 08:04:08;;;;;;;17.17;3.37;;;;;;;12.31;100.00;95884.66;6162017;23;20048;-90
2023/03/30 08:06:37;;;;;;;16.27;3.40;;;;;;;12.35;100.00;95907.03;6156972;23;20096;-90
2023/03/30 08:09:04;;;;;;;13.00;3.77;;;;;;;12.21;100.00;95911.25;6182422;23;20398;-85
2023/03/30 08:11:30;;;;;;;15.90;3.73;;;;;;;12.07;100.00;95919.91;6181387;23;20677;-85
2023/03/30 08:13:56;;;;;;;14.30;4.27;;;;;;;12.00;100.00;95918.97;6157352;23;20009;-84
2023/03/30 08:16:26;;;;;;;13.77;3.60;;;;;;;11.81;100.00;95922.88;6157036;23;20020;-84
2023/03/30 08:18:53;;;;;;;20.03;5.93;;;;;;;11.85;100.00;95936.56;6181311;23;20017;-84
2023/03/30 08:21:20;;;;;;;13.63;3.80;;;;;;;11.83;100.00;95933.25;6205162;23;20598;-84
2023/03/30 08:23:57;;;;;;;14.23;5.43;;;;;;;11.82;100.00;95926.34;6182275;23;20017;-84
2023/03/30 08:26:25;;;;;;;14.43;4.43;;;;;;;11.86;100.00;95907.38;6182789;23;20091;-85
2023/03/30 08:28:56;;;;;;;16.40;4.23;;;;;;;11.87;100.00;95900.31;6156878;23;20044;-85
2023/03/30 08:31:24;;;;;;;13.80;3.93;;;;;;;11.94;100.00;95873.09;6156859;23;20725;-85
2023/03/30 08:33:54;;;;;;;14.10;4.50;;;;;;;12.01;100.00;95895.09;6157194;23;20035;-86
2023/03/30 08:36:33;;;;;;;12.23;3.70;;;;;;;11.99;100.00;95881.28;6184586;23;20075;-86
2023/03/30 08:39:10;;;;;;;16.30;8.47;;;;;;;12.01;100.00;95894.28;6159070;23;20020;-86
2023/03/30 08:41:59;;;;;;;12.57;4.20;;;;;;;12.12;100.00;95900.97;6197431;23;20020;-87
2023/03/30 08:44:50;;;;;;;13.30;7.33;;;;;;;11.88;100.00;95913.31;6227478;23;20020;-86
2023/03/30 08:47:30;;;;;;;11.03;4.17;;;;;;;11.87;100.00;95919.59;6112544;23;20013;-86
2023/03/30 08:50:40;;;;;;;10.10;3.70;;;;;;;11.70;100.00;95939.91;6134699;23;20036;-86
2023/03/30 08:53:07;;;;;;;13.13;3.53;;;;;;;11.78;100.00;95949.56;6178069;23;20020;-86
2023/03/30 08:56:12;;;;;;;12.40;3.83;;;;;;;11.79;100.00;95956.47;6205454;23;20009;-86
2023/03/30 08:59:22;;;;;;;14.57;4.27;;;;;;;11.74;100.00;95966.72;6181655;23;20017;-86
2023/03/30 09:02:37;;;;;;;8.60;3.63;;;;;;;11.64;100.00;95971.41;6156431;23;20437;-86
2023/03/30 09:05:31;;;;;;;9.63;3.13;;;;;;;11.44;100.00;95977.06;6191908;23;20097;-86
2023/03/30 09:08:28;;;;;;;8.93;3.30;;;;;;;11.39;100.00;95981.19;6121911;23;20021;-86
2023/03/30 09:11:30;;;;;;;10.33;2.83;;;;;;;11.20;100.00;95985.88;6095580;23;20017;-86
2023/03/30 09:14:14;;;;;;;8.07;3.10;;;;;;;11.02;100.00;95978.16;6180918;23;20074;-86
2023/03/30 09:16:58;;;;;;;;;;;;;;;10.92;100.00;95982.81;6182797;23;20122;-86
2023/03/30 09:19:35;;;;;;;;;;;;;;;11.00;100.00;95985.44;6206188;23;19912;-85
2023/03/30 09:22:14;;;;;;;15.70;8.07;;;;;;;10.99;100.00;95986.41;6180082;23;19938;-85
2023/03/30 09:24:52;;;;;;;8.80;3.13;;;;;;;10.94;100.00;96001.88;6205691;23;20017;-86
2023/03/30 09:28:05;;;;;;;5.87;2.90;;;;;;;10.98;100.00;95976.88;6178108;23;20021;-86
2023/03/30 09:31:10;;;;;;;7.50;3.23;;;;;;;11.12;100.00;95966.66;6180804;23;20016;-86
2023/03/30 09:34:16;;;;;;;7.63;3.47;;;;;;;11.22;100.00;95962.00;6154965;23;20070;-86
2023/03/30 09:37:17;;;;;;;7.73;3.30;;;;;;;11.27;100.00;95970.22;6157686;23;20021;-85
2023/03/30 09:40:42;;;;;;;7.63;3.10;;;;;;;11.37;100.00;95970.00;6183313;23;20032;-85
2023/03/30 09:43:39;;;;;;;11.10;4.10;;;;;;;11.33;100.00;95965.09;6171304;23;20011;-86
2023/03/30 09:46:27;;;;;;;9.07;4.40;;;;;;;11.37;100.00;95957.69;6180175;23;20096;-86
2023/03/30 09:49:39;;;;;;;8.50;3.10;;;;;;;11.26;100.00;95942.25;6179426;23;20013;-86
2023/03/30 09:52:24;;;;;;;6.73;3.10;;;;;;;11.09;100.00;95926.50;6154734;23;20064;-83
2023/03/30 09:55:28;;;;;;;8.37;3.10;;;;;;;10.90;100.00;95907.66;6178079;23;20036;-83
2023/03/30 09:58:17;;;;;;;7.30;3.30;;;;;;;10.96;100.00;95923.59;6155712;23;20067;-83
2023/03/30 10:01:32;;;;;;;10.43;3.40;;;;;;;11.04;100.00;95930.66;6157140;23;20012;-85
2023/03/30 10:04:23;;;;;;;12.70;4.17;;;;;;;11.06;100.00;95924.22;6095151;23;20018;-84
2023/03/30 10:06:49;;;;;;;9.10;3.90;;;;;;;11.11;100.00;95909.75;6118724;23;20089;-84
2023/03/30 10:09:27;;;;;;;6.77;3.00;;;;;;;11.20;100.00;95882.38;6183872;23;20013;-84
2023/03/30 10:12:18;;;;;;;6.77;2.53;;;;;;;11.40;100.00;95880.16;6181231;23;20048;-84
2023/03/30 10:15:47;;;;;;;10.13;3.40;;;;;;;11.57;100.00;95902.78;6181669;23;20910;-84
2023/03/30 10:18:43;;;;;;;9.07;3.50;;;;;;;11.67;100.00;95908.66;6180366;23;20016;-84
2023/03/30 10:21:38;;;;;;;10.50;3.63;;;;;;;11.71;100.00;95917.84;6171842;23;20013;-84
2023/03/30 10:24:41;;;;;;;7.90;3.50;;;;;;;11.65;100.00;95915.06;6180460;23;20377;-85
2023/03/30 10:28:08;;;;;;;8.03;4.23;;;;;;;11.53;100.00;95933.06;6123459;23;20083;-84
2023/03/30 10:30:59;;;;;;;4.90;2.83;;;;;;;11.52;100.00;95931.44;6180624;23;20017;-85
2023/03/30 10:33:41;;;;;;;7.70;4.00;;;;;;;11.72;100.00;95923.91;6156474;23;20020;-84
2023/03/30 10:36:16;;;;;;;10.18;4.05;;;;;;;11.93;100.00;95929.41;6156603;23;20009;-85
2023/03/30 10:39:02;;;;;;;8.30;3.93;;;;;;;12.32;100.00;95922.38;6206284;23;20096;-83
2023/03/30 10:41:40;;;;;;;8.87;3.37;;;;;;;13.27;100.00;95900.66;6178706;23;20021;-85
2023/03/30 10:44:49;;;;;;;7.40;2.97;;;;;;;13.98;100.00;95879.69;6095323;23;20018;-85
2023/03/30 10:48:02;;;;;;;6.27;2.83;;;;;;;14.12;100.00;95884.91;6095311;23;20140;-84
2023/03/30 10:51:18;;;;;;;9.57;3.03;;;;;;;13.33;100.00;95906.00;6118244;23;20085;-86
2023/03/30 10:54:27;;;;;;;5.13;2.40;;;;;;;12.96;100.00;95907.72;6118354;23;20024;-86
2023/03/30 10:57:01;;;;;;;6.80;2.37;;;;;;;13.06;100.00;95904.00;6155748;23;20046;-85
2023/03/30 11:00:48;;;;;;;8.30;2.30;;;;;;;12.86;100.00;95870.25;6202594;23;20075;-86
2023/03/30 11:03:26;;;;;;;9.23;2.83;;;;;;;12.90;100.00;95882.06;6066570;23;20825;-86
2023/03/30 11:06:40;;;;;;;8.40;2.70;;;;;;;12.78;100.00;95875.63;6076543;23;20025;-82
2023/03/30 11:12:45;;;;;;;11.47;2.90;;;;;;;12.35;100.00;95885.13;6180109;23;20013;-84
2023/03/30 11:15:14;;;;;;;7.83;2.87;;;;;;;12.32;100.00;95877.56;6180697;23;20009;-84
2023/03/30 11:17:40;;;;;;;8.57;3.10;;;;;;;12.40;100.00;95883.56;6181121;23;20005;-82
2023/03/30 11:20:20;;;;;;;11.23;3.50;;;;;;;12.37;100.00;95881.28;6156578;23;20024;-82
2023/03/30 11:22:53;;;;;;;7.50;2.83;;;;;;;12.44;100.00;95874.31;6205083;23;20013;-83
2023/03/30 11:26:07;;;;;;;13.55;3.70;;;;;;;12.48;100.00;95880.88;6182032;23;20047;-83
2023/03/30 11:32:03;;;;;;;7.68;3.33;;;;;;;12.54;100.00;95865.31;6106479;23;20022;-84
2023/03/30 11:35:16;;;;;;;9.40;3.40;;;;;;;12.29;100.00;95880.56;6202351;23;20013;-82
2023/03/30 11:37:51;;;;;;;9.70;3.23;;;;;;;12.17;100.00;95888.06;6068415;23;20045;-82
2023/03/30 11:40:34;;;;;;;12.40;6.07;;;;;;;12.12;100.00;95900.97;6172835;23;20068;-82
2023/03/30 11:43:00;;;;;;;7.90;3.00;;;;;;;11.97;100.00;95899.09;6181646;23;20024;-82
2023/03/30 11:45:55;;;;;;;7.03;2.80;;;;;;;11.95;100.00;95890.53;6207711;23;20013;-82
2023/03/30 11:49:01;;;;;;;7.57;3.30;;;;;;;11.96;100.00;95886.91;6182659;23;20023;-82
2023/03/30 11:51:48;;;;;;;7.67;2.73;;;;;;;12.00;100.00;95892.63;6181329;23;20017;-82
2023/03/30 11:54:42;;;;;;;7.67;3.00;;;;;;;12.12;100.00;95906.22;6181811;23;20103;-82
2023/03/30 11:57:46;;;;;;;7.50;3.50;;;;;;;12.14;100.00;95906.84;6157079;23;20017;-83
2023/03/30 12:00:25;;;;;;;;;;;;;;;12.18;100.00;95900.25;6209064;23;20036;-83
2023/03/30 12:03:07;;;;;;;13.73;3.33;;;;;;;12.25;100.00;95896.72;6207682;23;19912;-83
2023/03/30 12:05:44;;;;;;;10.63;2.93;;;;;;;12.30;100.00;95893.53;6158048;23;20044;-82
2023/03/30 12:08:13;;;;;;;7.63;2.80;;;;;;;12.35;100.00;95901.75;6182465;23;20017;-83
2023/03/30 12:10:40;;;;;;;6.73;2.60;;;;;;;12.35;100.00;95907.03;6177247;23;20017;-82
2023/03/30 12:13:15;;;;;;;9.37;2.90;;;;;;;12.40;100.00;95896.75;6201395;23;20067;-85
2023/03/30 12:15:54;;;;;;;6.20;2.67;;;;;;;12.67;100.00;95897.97;6156628;23;20486;-83
2023/03/30 12:18:34;;;;;;;11.47;3.63;;;;;;;12.60;100.00;95904.16;6157854;23;20009;-83
2023/03/30 12:21:33;;;;;;;7.80;3.37;;;;;;;12.69;100.00;95908.34;6156830;23;20013;-82
2023/03/30 12:24:18;;;;;;;9.30;3.20;;;;;;;12.76;100.00;95909.28;6157596;23;20023;-83
2023/03/30 12:26:48;;;;;;;8.30;2.70;;;;;;;12.91;100.00;95901.34;6161775;23;20017;-81
2023/03/30 12:29:42;;;;;;;8.73;2.80;;;;;;;12.70;100.00;95894.97;6182105;23;20063;-82
2023/03/30 12:32:20;;;;;;;8.15;3.13;;;;;;;12.76;100.00;95908.47;6180095;23;20043;-82
2023/03/30 12:34:46;;;;;;;8.73;2.90;;;;;;;12.50;100.00;95907.84;6205934;23;20028;-83
2023/03/30 12:37:25;;;;;;;8.30;2.70;;;;;;;12.32;100.00;95899.47;6180567;23;20345;-82